Lake Mead Rancheros, Arizona
Current Conditions -  °F | °C
As of 8:51 AM on Saturday 25 Oct 2014 (Local Time) from KIGM Reporting Station
Clear Clear  
Wind Chill: 72°   Ceiling: Unl
Heat Index: 72°   Visibility: NA
Dew Point: 43°   Wind: 3mph
Humidity: 35%   Direction: 140°SE
Pressure: 30.15"   Gusts: NA
Location:  35.2036°N, 114.02°W
Report Text: KIGM 251551Z AUTO 14003KT CLR 22/06 A3015 RMK AO2 SLP151 T02220061 $
Loading
Personal Weather Stations






























Interactive Weather Map
Tropical Storm Tracking
New forecast layout! Learn more

10-Day Weather Forecast

Advertisements
Track Severe Weather on mobile